Startpagina
METAR-TAF:

METAR-TAF

Vliegvelden :

Koeweit, Koeweit

breedte: 29-13N, lengte: 047-59E, hoogte: 55 m

Actueel weer

Dit bericht is 10 minuten geleden gemaakt, om 12:00 UTC
Wind 9 kt uit het zuidoosten
Temperatuur 44°C
Vochtigheid 11%
Druk 1008 hPa
Zicht 10 km of meer
geen wolken onder 1500 m en geen cumulonimbus

METAR: OKBK 251200Z 14009KT CAVOK 44/07 Q1008 NOSIG

Tijdstip: 15:10 (12:10 UTC)

Verwachting

Dit bericht is 1 uur en het 25 minuten geleden gemaakt, om 10:45 UTC
Verwachting geldig van 25 om 12 UTC tot 26 om 18 UTC
Wind 8 kt uit het zuidzuidoosten met uitschieters tot 18 kt
Zicht: 6000 m
Onbewolkt
Tijdelijke
van 25 om 12 UTC tot 25 om 15 UTC
Wind 3 kt uit variabele richting
Zicht: 3000 m
Heiigheid

TAF: OKBK 251045Z 2512/2618 16008G18KT 6000 SKC TEMPO 2512/2515 VRB03KT 3000 HZ

Waarnemingen en weersverwachtingen van meer dan 4000 vliegvelden (METAR en TAF).

De beschikbare stations zijn de gele en rode punten op de kaart.

Ga met uw muis naar het station om de naam te zien.

Klik dan om waarnemingen en weersverwachtingen te zien.

kaart wijzigen: klik op de groene knoppen met een zwart kruis om in te zoomen, op de groene knop met een streepje om uit te zoomen of op de groene pijlen voor aangrenzende kaarten.


METAR-TAF: